createdAt,value
2022-09-15T00:00:40.543Z,14.89
2022-09-15T00:04:16.498Z,14.90
2022-09-15T00:07:53.415Z,14.90
2022-09-15T00:11:33.534Z,14.89
2022-09-15T00:15:08.338Z,14.90
2022-09-15T00:18:45.420Z,14.92
2022-09-15T00:22:24.408Z,14.92
2022-09-15T00:25:58.688Z,14.93
2022-09-15T00:29:36.005Z,14.94
2022-09-15T00:33:18.250Z,14.95
2022-09-15T00:36:47.828Z,14.96
2022-09-15T00:44:21.616Z,14.98
2022-09-15T00:51:18.602Z,14.98
2022-09-15T00:55:15.782Z,14.98
2022-09-15T00:58:48.076Z,14.98
2022-09-15T01:02:30.965Z,14.97
2022-09-15T01:09:24.156Z,14.95
2022-09-15T01:13:04.229Z,14.93
2022-09-15T01:20:31.182Z,14.90
2022-09-15T01:24:05.516Z,14.89
2022-09-15T01:27:41.136Z,14.88
2022-09-15T01:32:04.868Z,14.88
2022-09-15T01:35:23.672Z,14.89
2022-09-15T01:39:01.093Z,14.88
2022-09-15T01:42:20.428Z,14.87
2022-09-15T01:45:55.390Z,14.86
2022-09-15T01:49:45.857Z,14.85
2022-09-15T01:53:15.608Z,14.84
2022-09-15T01:56:46.336Z,14.83
2022-09-15T02:00:22.455Z,14.82
2022-09-15T02:04:07.061Z,14.81
2022-09-15T02:07:45.543Z,14.80
2022-09-15T02:11:25.257Z,14.78
2022-09-15T02:15:01.226Z,14.76
2022-09-15T02:18:58.939Z,14.74
2022-09-15T02:22:14.703Z,14.72
2022-09-15T02:25:56.385Z,14.70
2022-09-15T02:29:29.363Z,14.69
2022-09-15T02:33:09.695Z,14.66
2022-09-15T02:36:42.829Z,14.64
2022-09-15T02:40:16.554Z,14.60
2022-09-15T02:43:53.408Z,14.59
2022-09-15T02:47:32.182Z,14.57
2022-09-15T02:51:07.100Z,14.56
2022-09-15T02:54:43.846Z,14.57
2022-09-15T02:58:20.586Z,14.57
2022-09-15T03:01:57.959Z,14.57
2022-09-15T03:05:34.199Z,14.57
2022-09-15T03:09:20.563Z,14.58
2022-09-15T03:12:50.496Z,14.58
2022-09-15T03:16:25.876Z,14.58
2022-09-15T03:20:02.437Z,14.57
2022-09-15T03:23:38.958Z,14.55
2022-09-15T03:27:14.980Z,14.55
2022-09-15T03:30:52.049Z,14.53
2022-09-15T03:34:29.288Z,14.52
2022-09-15T03:38:05.243Z,14.51
2022-09-15T03:41:41.922Z,14.49
2022-09-15T03:45:19.280Z,14.47
2022-09-15T03:48:55.547Z,14.44
2022-09-15T03:52:33.166Z,14.43
2022-09-15T03:56:12.399Z,14.42
2022-09-15T03:59:45.978Z,14.40
2022-09-15T04:03:23.348Z,14.38
2022-09-15T04:06:59.866Z,14.37
2022-09-15T04:10:39.424Z,14.34
2022-09-15T04:14:13.387Z,14.30
2022-09-15T04:17:50.261Z,14.28
2022-09-15T04:25:04.321Z,14.21
2022-09-15T04:28:40.999Z,14.18
2022-09-15T04:32:17.385Z,14.16
2022-09-15T04:36:10.728Z,14.14
2022-09-15T04:39:31.051Z,14.13
2022-09-15T04:43:08.443Z,14.13
2022-09-15T04:46:44.442Z,14.14
2022-09-15T04:50:23.175Z,14.16
2022-09-15T04:53:59.466Z,14.20
2022-09-15T04:57:36.027Z,14.24
2022-09-15T05:04:58.860Z,14.25
2022-09-15T05:08:26.984Z,14.21
2022-09-15T05:12:09.693Z,14.16
2022-09-15T05:15:52.443Z,14.11
2022-09-15T05:22:55.783Z,14.11
2022-09-15T05:26:54.569Z,14.12
2022-09-15T05:33:48.808Z,14.17
2022-09-15T05:37:23.489Z,14.20
2022-09-15T05:41:08.803Z,14.22
2022-09-15T05:44:39.132Z,14.23
2022-09-15T05:48:15.725Z,14.26
2022-09-15T05:51:51.789Z,14.26
2022-09-15T05:55:28.992Z,14.25
2022-09-15T05:59:06.575Z,14.26
2022-09-15T06:02:43.300Z,14.27
2022-09-15T06:06:20.095Z,14.28
2022-09-15T06:09:55.118Z,14.33
2022-09-15T06:13:32.687Z,14.38
2022-09-15T06:17:08.568Z,14.43
2022-09-15T06:20:47.862Z,14.50
2022-09-15T06:24:26.889Z,14.54
2022-09-15T06:27:59.263Z,14.60
2022-09-15T06:31:36.742Z,14.67
2022-09-15T06:35:13.651Z,14.73
2022-09-15T06:38:50.633Z,14.78
2022-09-15T06:42:27.550Z,14.82
2022-09-15T06:46:13.127Z,14.91
2022-09-15T06:49:40.419Z,15.13
2022-09-15T06:53:16.469Z,15.32
2022-09-15T06:56:53.402Z,15.42
2022-09-15T07:00:31.205Z,15.51
2022-09-15T07:04:11.398Z,15.51
2022-09-15T07:07:43.873Z,15.49
2022-09-15T07:11:21.471Z,15.48
2022-09-15T07:14:57.422Z,15.43
2022-09-15T07:18:36.776Z,15.39
2022-09-15T07:22:12.135Z,15.38
2022-09-15T07:25:47.757Z,15.37
2022-09-15T07:29:24.242Z,15.37
2022-09-15T07:33:03.134Z,15.38
2022-09-15T07:36:47.688Z,15.39
2022-09-15T07:40:15.747Z,15.35
2022-09-15T07:44:13.012Z,15.31
2022-09-15T07:47:28.977Z,15.30
2022-09-15T07:51:07.148Z,15.32
2022-09-15T07:54:42.159Z,15.40
2022-09-15T07:58:20.145Z,15.49
2022-09-15T08:01:55.914Z,15.57
2022-09-15T08:05:38.665Z,15.63
2022-09-15T08:09:15.221Z,15.70
2022-09-15T08:12:46.287Z,15.75
2022-09-15T08:16:24.726Z,15.78
2022-09-15T08:20:02.325Z,15.79
2022-09-15T08:23:37.224Z,15.81
2022-09-15T08:27:14.576Z,15.83
2022-09-15T08:30:49.818Z,15.88
2022-09-15T08:34:28.555Z,15.94
2022-09-15T08:38:03.668Z,15.99
2022-09-15T08:41:47.012Z,16.03
2022-09-15T08:45:30.657Z,16.06
2022-09-15T09:18:30.402Z,16.21
2022-09-15T09:21:38.967Z,16.18
2022-09-15T09:25:26.560Z,16.14
2022-09-15T09:28:56.315Z,16.09
2022-09-15T09:32:32.296Z,16.01
2022-09-15T09:36:02.968Z,15.98
2022-09-15T09:39:33.789Z,16.10
2022-09-15T09:43:13.476Z,16.17
2022-09-15T09:46:49.499Z,16.30
2022-09-15T09:50:44.079Z,16.56
2022-09-15T09:54:16.696Z,16.80
2022-09-15T09:57:40.727Z,16.91
2022-09-15T10:01:18.063Z,16.95
2022-09-15T10:05:03.293Z,17.00
2022-09-15T10:08:27.960Z,16.97
2022-09-15T10:12:07.359Z,16.92
2022-09-15T10:15:44.161Z,16.99
2022-09-15T10:19:18.989Z,17.03
2022-09-15T10:23:24.556Z,17.00
2022-09-15T10:26:35.746Z,16.93
2022-09-15T10:30:17.597Z,16.84
2022-09-15T10:33:48.564Z,16.75
2022-09-15T10:37:52.691Z,16.56
2022-09-15T10:41:21.130Z,16.34
2022-09-15T10:44:47.919Z,16.18
2022-09-15T10:48:35.139Z,16.11
2022-09-15T10:52:21.454Z,16.07
2022-09-15T10:55:52.981Z,16.04
2022-09-15T10:59:18.527Z,15.98
2022-09-15T11:03:23.088Z,15.97
2022-09-15T11:06:44.102Z,16.01
2022-09-15T11:10:15.510Z,16.08
2022-09-15T11:13:56.837Z,16.22
2022-09-15T11:17:40.825Z,16.44
2022-09-15T11:21:13.218Z,16.58
2022-09-15T11:24:55.828Z,16.73
2022-09-15T11:28:33.048Z,16.79
2022-09-15T11:31:51.984Z,16.79
2022-09-15T11:35:42.664Z,16.65
2022-09-15T11:39:10.842Z,16.34
2022-09-15T11:42:46.042Z,16.03
2022-09-15T11:46:23.817Z,15.79
2022-09-15T11:50:12.857Z,15.67
2022-09-15T11:53:39.595Z,15.62
2022-09-15T11:57:04.692Z,15.59
2022-09-15T12:00:51.814Z,15.63
2022-09-15T12:04:26.101Z,15.69
2022-09-15T12:08:21.098Z,15.76
2022-09-15T12:12:02.147Z,15.81
2022-09-15T12:15:15.396Z,15.86
2022-09-15T12:19:07.665Z,15.88
2022-09-15T12:22:49.155Z,15.88
2022-09-15T12:26:22.876Z,15.89
2022-09-15T12:29:42.153Z,15.97
2022-09-15T12:33:43.444Z,16.14
2022-09-15T12:36:51.526Z,16.29
2022-09-15T12:40:36.229Z,16.43
2022-09-15T12:44:07.503Z,16.54
2022-09-15T12:47:42.707Z,16.55
2022-09-15T12:51:29.424Z,16.53
2022-09-15T12:54:57.668Z,16.51
2022-09-15T12:58:39.689Z,16.49
2022-09-15T13:02:46.435Z,16.49
2022-09-15T13:06:21.107Z,16.52
2022-09-15T13:10:19.013Z,16.59
2022-09-15T13:13:45.608Z,16.74
2022-09-15T13:17:11.835Z,16.91
2022-09-15T13:20:38.830Z,17.06
2022-09-15T13:24:44.275Z,17.17
2022-09-15T13:28:03.650Z,17.11
2022-09-15T13:31:38.999Z,16.82
2022-09-15T13:35:32.839Z,16.33
2022-09-15T13:39:04.525Z,15.87
2022-09-15T13:42:19.128Z,15.55
2022-09-15T13:45:53.213Z,15.35
2022-09-15T13:49:49.274Z,15.20
2022-09-15T13:53:42.979Z,15.14
2022-09-15T13:57:02.139Z,15.16
2022-09-15T14:00:55.614Z,15.27
2022-09-15T14:04:15.440Z,15.43
2022-09-15T14:08:18.111Z,15.49
2022-09-15T14:11:35.644Z,15.51
2022-09-15T14:15:06.662Z,15.49
2022-09-15T14:18:43.837Z,15.39
2022-09-15T14:22:26.397Z,15.27
2022-09-15T14:25:51.308Z,15.18
2022-09-15T14:29:28.308Z,15.14
2022-09-15T14:33:24.147Z,15.23
2022-09-15T14:36:41.400Z,15.35
2022-09-15T15:23:28.227Z,15.92
2022-09-15T15:26:39.825Z,15.91
2022-09-15T15:30:31.040Z,15.90
2022-09-15T15:33:52.430Z,15.88
2022-09-15T15:37:34.356Z,15.86
2022-09-15T15:41:08.386Z,15.83
2022-09-15T15:44:35.145Z,15.77
2022-09-15T15:48:12.564Z,15.71
2022-09-15T15:51:48.971Z,15.68
2022-09-15T15:55:37.111Z,15.67
2022-09-15T15:59:02.347Z,15.67
2022-09-15T16:02:39.905Z,15.68
2022-09-15T16:06:16.211Z,15.68
2022-09-15T16:09:54.495Z,15.68
2022-09-15T16:13:31.295Z,15.69
2022-09-15T16:17:06.917Z,15.67
2022-09-15T16:20:44.277Z,15.64
2022-09-15T16:24:20.007Z,15.61
2022-09-15T16:27:57.517Z,15.58
2022-09-15T16:31:35.328Z,15.55
2022-09-15T16:35:36.792Z,15.53
2022-09-15T16:38:47.285Z,15.49
2022-09-15T16:42:26.125Z,15.43
2022-09-15T16:46:02.652Z,15.37
2022-09-15T16:49:40.850Z,15.33
2022-09-15T16:53:20.367Z,15.29
2022-09-15T16:56:52.456Z,15.24
2022-09-15T17:00:30.557Z,15.19
2022-09-15T17:04:15.587Z,15.15
2022-09-15T17:07:42.165Z,15.10
2022-09-15T17:11:20.390Z,15.05
2022-09-15T17:14:57.952Z,15.01
2022-09-15T17:18:31.777Z,14.97
2022-09-15T17:22:09.960Z,14.91
2022-09-15T17:25:52.728Z,14.87
2022-09-15T17:29:22.663Z,14.83
2022-09-15T17:33:08.786Z,14.79
2022-09-15T17:36:38.079Z,14.75
2022-09-15T17:40:15.703Z,14.72
2022-09-15T17:43:49.671Z,14.69
2022-09-15T17:47:26.279Z,14.65
2022-09-15T17:51:03.446Z,14.61
2022-09-15T17:54:41.697Z,14.59
2022-09-15T17:58:18.480Z,14.57
2022-09-15T18:02:19.498Z,14.55
2022-09-15T18:05:37.939Z,14.53
2022-09-15T18:09:07.614Z,14.50
2022-09-15T18:12:48.385Z,14.47
2022-09-15T18:16:21.975Z,14.42
2022-09-15T18:19:57.664Z,14.38
2022-09-15T18:23:35.288Z,14.35
2022-09-15T18:27:31.567Z,14.30
2022-09-15T18:30:55.942Z,14.29
2022-09-15T18:34:28.464Z,14.24
2022-09-15T18:38:03.455Z,14.20
2022-09-15T18:41:39.311Z,14.16
2022-09-15T18:45:17.357Z,14.11
2022-09-15T18:48:54.101Z,14.05
2022-09-15T18:52:31.892Z,14.01
2022-09-15T18:56:13.922Z,14.00
2022-09-15T18:59:42.372Z,14.00
2022-09-15T19:03:19.464Z,14.01
2022-09-15T19:06:57.738Z,14.01
2022-09-15T19:10:32.953Z,13.99
2022-09-15T19:14:09.264Z,13.99
2022-09-15T19:17:47.118Z,13.96
2022-09-15T19:21:33.004Z,13.93
2022-09-15T19:25:00.080Z,13.91
2022-09-15T19:28:37.097Z,13.87
2022-09-15T19:32:15.205Z,13.85
2022-09-15T19:35:59.955Z,13.83
2022-09-15T19:39:27.177Z,13.82
2022-09-15T19:43:03.551Z,13.82
2022-09-15T19:46:40.591Z,13.81
2022-09-15T19:50:17.683Z,13.80
2022-09-15T19:53:56.604Z,13.78
2022-09-15T19:57:31.058Z,13.77
2022-09-15T20:01:07.505Z,13.76
2022-09-15T20:08:21.922Z,13.67
2022-09-15T20:12:16.773Z,13.61
2022-09-15T20:15:34.784Z,13.57
2022-09-15T20:19:11.600Z,13.53
2022-09-15T20:22:48.167Z,13.49
2022-09-15T20:26:25.732Z,13.48
2022-09-15T20:30:02.167Z,13.45
2022-09-15T20:33:40.631Z,13.43
2022-09-15T20:37:14.974Z,13.39
2022-09-15T20:40:55.890Z,13.33
2022-09-15T20:44:29.063Z,13.25
2022-09-15T20:48:05.652Z,13.19
2022-09-15T20:51:42.947Z,13.17
2022-09-15T20:55:19.732Z,13.15
2022-09-15T20:59:00.334Z,13.12
2022-09-15T21:02:34.831Z,13.12
2022-09-15T21:06:13.011Z,13.14
2022-09-15T21:09:47.265Z,13.15
2022-09-15T21:13:23.375Z,13.15
2022-09-15T21:17:00.837Z,13.16
2022-09-15T21:20:36.738Z,13.16
2022-09-15T21:24:14.072Z,13.14
2022-09-15T21:27:50.565Z,13.15
2022-09-15T21:31:32.455Z,13.17
2022-09-15T21:35:04.606Z,13.14
2022-09-15T21:38:44.410Z,13.08
2022-09-15T21:42:22.751Z,13.01
2022-09-15T21:45:58.659Z,12.99
2022-09-15T21:49:31.450Z,12.96
2022-09-15T21:53:07.918Z,12.93
2022-09-15T21:56:45.429Z,12.92
2022-09-15T22:00:21.452Z,12.93
2022-09-15T22:04:06.943Z,12.95
2022-09-15T22:07:35.313Z,12.96
2022-09-15T22:11:12.143Z,12.97
2022-09-15T22:14:50.053Z,12.98
2022-09-15T22:18:25.459Z,13.00
2022-09-15T22:22:02.371Z,12.98
2022-09-15T22:25:39.092Z,12.95
2022-09-15T22:29:16.190Z,12.93
2022-09-15T22:32:53.189Z,12.91
2022-09-15T22:36:31.156Z,12.91
2022-09-15T22:40:07.159Z,12.91
2022-09-15T22:43:45.671Z,12.91
2022-09-15T22:47:19.753Z,12.92
2022-09-15T22:50:56.334Z,12.92
2022-09-15T22:54:33.631Z,12.93
2022-09-15T22:58:11.989Z,12.92
2022-09-15T23:01:47.434Z,12.93
2022-09-15T23:05:23.739Z,12.91
2022-09-15T23:09:03.633Z,12.88
2022-09-15T23:12:37.429Z,12.86
2022-09-15T23:16:14.276Z,12.85
2022-09-15T23:19:51.005Z,12.83
2022-09-15T23:23:28.334Z,12.80
2022-09-15T23:27:04.837Z,12.79
2022-09-15T23:30:41.515Z,12.77
2022-09-15T23:34:18.854Z,12.75
2022-09-15T23:37:55.085Z,12.75
2022-09-15T23:41:31.715Z,12.75
2022-09-15T23:45:08.756Z,12.78
2022-09-15T23:48:45.583Z,12.77
2022-09-15T23:52:21.957Z,12.74
2022-09-15T23:56:01.075Z,12.70
2022-09-15T23:59:35.423Z,12.69
